createdAt,value
2018-02-23T00:00:40.018Z,41.41
2018-02-23T00:01:42.537Z,41.57
2018-02-23T00:02:45.013Z,41.46
2018-02-23T00:03:47.483Z,41.56
2018-02-23T00:04:49.943Z,41.49
2018-02-23T00:05:52.418Z,41.50
2018-02-23T00:06:54.907Z,41.59
2018-02-23T00:07:57.393Z,41.65
2018-02-23T00:08:59.882Z,41.67
2018-02-23T00:10:02.353Z,41.69
2018-02-23T00:11:04.832Z,41.71
2018-02-23T00:12:07.347Z,41.86
2018-02-23T00:13:09.807Z,41.83
2018-02-23T00:14:12.275Z,41.74
2018-02-23T00:15:14.747Z,41.88
2018-02-23T00:16:17.243Z,41.97
2018-02-23T00:17:19.732Z,42.12
2018-02-23T00:18:22.213Z,42.22
2018-02-23T00:19:24.673Z,42.53
2018-02-23T00:20:27.173Z,42.57
2018-02-23T00:21:29.652Z,42.68
2018-02-23T00:22:39.838Z,42.90
2018-02-23T00:23:42.327Z,43.02
2018-02-23T00:24:44.824Z,43.15
2018-02-23T00:25:47.292Z,43.01
2018-02-23T00:26:49.773Z,43.06
2018-02-23T00:27:52.282Z,43.32
2018-02-23T00:28:54.773Z,43.32
2018-02-23T00:29:57.266Z,43.33
2018-02-23T00:30:59.752Z,43.45
2018-02-23T00:32:02.231Z,43.30
2018-02-23T00:33:04.719Z,43.54
2018-02-23T00:34:07.187Z,43.48
2018-02-23T00:35:09.646Z,43.43
2018-02-23T00:36:12.129Z,43.54
2018-02-23T00:37:14.602Z,43.57
2018-02-23T00:38:17.104Z,43.54
2018-02-23T00:39:19.567Z,43.56
2018-02-23T00:40:22.036Z,43.70
2018-02-23T00:41:24.503Z,43.47
2018-02-23T00:42:26.967Z,43.71
2018-02-23T00:43:29.460Z,43.69
2018-02-23T00:44:31.932Z,43.64
2018-02-23T00:45:34.403Z,43.69
2018-02-23T00:46:36.889Z,43.74
2018-02-23T00:47:39.353Z,43.86
2018-02-23T00:48:41.844Z,43.71
2018-02-23T00:49:44.312Z,43.68
2018-02-23T00:50:46.779Z,43.79
2018-02-23T00:51:49.277Z,43.75
2018-02-23T00:52:51.761Z,43.86
2018-02-23T00:53:54.255Z,43.87
2018-02-23T00:54:56.736Z,43.86
2018-02-23T00:55:59.209Z,44.00
2018-02-23T00:57:01.691Z,44.01
2018-02-23T00:58:04.159Z,44.04
2018-02-23T00:59:06.648Z,44.10
2018-02-23T01:00:09.133Z,44.04
2018-02-23T01:01:11.609Z,44.09
2018-02-23T01:02:14.075Z,44.06
2018-02-23T01:03:16.551Z,44.19
2018-02-23T01:04:19.035Z,44.17
2018-02-23T01:05:21.514Z,44.19
2018-02-23T01:06:24.007Z,44.35
2018-02-23T01:07:26.486Z,44.39
2018-02-23T01:08:28.951Z,44.34
2018-02-23T01:09:31.435Z,44.49
2018-02-23T01:10:33.903Z,44.77
2018-02-23T01:11:36.381Z,44.69
2018-02-23T01:12:38.866Z,44.77
2018-02-23T01:13:41.346Z,44.85
2018-02-23T01:14:43.852Z,44.97
2018-02-23T01:15:46.322Z,45.14
2018-02-23T01:16:48.805Z,45.22
2018-02-23T01:17:51.271Z,45.19
2018-02-23T01:18:53.739Z,45.30
2018-02-23T01:19:56.237Z,45.47
2018-02-23T01:20:58.718Z,45.33
2018-02-23T01:22:01.206Z,45.38
2018-02-23T01:23:03.678Z,45.48
2018-02-23T01:24:06.147Z,45.44
2018-02-23T01:25:08.649Z,45.39
2018-02-23T01:26:11.115Z,45.46
2018-02-23T01:27:13.597Z,45.52
2018-02-23T01:28:16.086Z,45.61
2018-02-23T01:29:18.569Z,45.76
2018-02-23T01:30:21.077Z,45.64
2018-02-23T01:31:23.536Z,45.67
2018-02-23T01:32:26.026Z,45.77
2018-02-23T01:33:28.510Z,45.84
2018-02-23T01:34:30.988Z,45.92
2018-02-23T01:35:33.495Z,45.99
2018-02-23T01:36:36.017Z,45.91
2018-02-23T01:37:38.490Z,45.97
2018-02-23T01:38:40.974Z,46.02
2018-02-23T01:39:43.462Z,46.11
2018-02-23T01:40:45.965Z,46.14
2018-02-23T01:41:48.441Z,46.24
2018-02-23T01:42:50.916Z,46.21
2018-02-23T01:43:53.388Z,46.16
2018-02-23T01:44:55.883Z,46.49
2018-02-23T01:45:58.388Z,46.58
2018-02-23T01:47:00.917Z,46.55
2018-02-23T01:48:03.402Z,46.55
2018-02-23T01:49:05.904Z,46.39
2018-02-23T01:50:08.368Z,46.34
2018-02-23T01:51:10.871Z,46.33
2018-02-23T01:52:13.352Z,46.30
2018-02-23T01:53:15.837Z,46.41
2018-02-23T01:54:18.321Z,46.44
2018-02-23T01:55:20.808Z,46.45
2018-02-23T01:56:23.311Z,46.50
2018-02-23T01:57:25.797Z,46.57
2018-02-23T01:58:28.285Z,46.54
2018-02-23T01:59:30.750Z,46.60
2018-02-23T02:00:33.215Z,46.62
2018-02-23T02:01:35.713Z,46.76
2018-02-23T02:02:38.187Z,46.69
2018-02-23T02:03:40.664Z,46.78
2018-02-23T02:04:43.299Z,46.95
2018-02-23T02:05:45.785Z,47.20
2018-02-23T02:06:48.271Z,47.23
2018-02-23T02:07:50.740Z,47.15
2018-02-23T02:08:53.324Z,47.11
2018-02-23T02:09:55.800Z,47.10
2018-02-23T02:10:58.265Z,47.03
2018-02-23T02:12:00.767Z,47.11
2018-02-23T02:13:03.253Z,47.22
2018-02-23T02:14:05.753Z,47.14
2018-02-23T02:15:08.227Z,47.14
2018-02-23T02:16:10.726Z,47.14
2018-02-23T02:17:13.225Z,47.22
2018-02-23T02:18:15.727Z,47.30
2018-02-23T02:19:18.229Z,47.29
2018-02-23T02:20:20.699Z,47.31
2018-02-23T02:21:23.180Z,47.28
2018-02-23T02:22:25.698Z,47.27
2018-02-23T02:23:28.166Z,47.34
2018-02-23T02:24:30.635Z,47.32
2018-02-23T02:25:33.104Z,47.35
2018-02-23T02:26:35.584Z,47.36
2018-02-23T02:27:38.072Z,47.39
2018-02-23T02:28:40.562Z,47.35
2018-02-23T02:29:43.050Z,47.39
2018-02-23T02:30:45.545Z,47.42
2018-02-23T02:31:48.012Z,47.46
2018-02-23T02:33:59.343Z,47.47
2018-02-23T02:35:01.808Z,47.49
2018-02-23T02:36:04.277Z,47.55
2018-02-23T02:37:06.771Z,47.55
2018-02-23T02:38:09.259Z,47.65
2018-02-23T02:39:11.831Z,47.67
2018-02-23T02:40:14.322Z,47.79
2018-02-23T02:41:16.791Z,47.67
2018-02-23T02:42:19.269Z,47.71
2018-02-23T02:43:21.764Z,47.80
2018-02-23T02:44:24.249Z,47.82
2018-02-23T02:45:26.728Z,47.86
2018-02-23T02:46:29.210Z,47.94
2018-02-23T02:47:31.693Z,47.98
2018-02-23T02:48:34.220Z,48.01
2018-02-23T02:49:36.686Z,48.11
2018-02-23T02:50:39.165Z,48.10
2018-02-23T02:51:41.646Z,48.05
2018-02-23T02:52:44.197Z,48.08
2018-02-23T02:53:46.648Z,48.23
2018-02-23T02:54:49.129Z,48.07
2018-02-23T02:55:51.625Z,48.28
2018-02-23T02:56:54.092Z,48.42
2018-02-23T02:57:56.559Z,48.44
2018-02-23T02:58:59.040Z,48.50
2018-02-23T03:00:01.536Z,48.48
2018-02-23T03:01:04.019Z,48.53
2018-02-23T03:02:06.493Z,48.46
2018-02-23T03:03:09.009Z,48.38
2018-02-23T03:04:11.475Z,48.34
2018-02-23T03:05:13.952Z,48.53
2018-02-23T03:06:16.419Z,48.64
2018-02-23T03:07:18.892Z,48.79
2018-02-23T03:08:21.393Z,48.83
2018-02-23T03:09:23.876Z,48.75
2018-02-23T03:10:26.348Z,48.74
2018-02-23T03:11:28.847Z,48.75
2018-02-23T03:12:31.325Z,48.73
2018-02-23T03:13:33.834Z,48.66
2018-02-23T03:14:36.322Z,48.66
2018-02-23T03:15:38.803Z,48.61
2018-02-23T03:16:41.266Z,48.69
2018-02-23T03:17:43.732Z,48.90
2018-02-23T03:18:46.233Z,48.90
2018-02-23T03:19:48.714Z,48.71
2018-02-23T03:20:51.205Z,48.74
2018-02-23T03:21:53.680Z,48.86
2018-02-23T03:22:56.164Z,48.91
2018-02-23T03:23:58.655Z,49.00
2018-02-23T03:25:01.162Z,49.05
2018-02-23T03:26:03.642Z,49.17
2018-02-23T03:27:06.124Z,49.10
2018-02-23T03:28:08.610Z,49.09
2018-02-23T03:29:11.094Z,49.17
2018-02-23T03:30:13.583Z,49.26
2018-02-23T03:31:16.074Z,49.26
2018-02-23T03:32:18.544Z,49.25
2018-02-23T03:33:21.029Z,49.28
2018-02-23T03:34:23.532Z,49.29
2018-02-23T03:35:26.013Z,49.22
2018-02-23T03:36:28.487Z,49.30
2018-02-23T03:37:30.968Z,49.25
2018-02-23T03:38:33.441Z,49.27
2018-02-23T03:39:35.940Z,49.29
2018-02-23T03:40:38.426Z,49.33
2018-02-23T03:41:40.910Z,49.52
2018-02-23T03:42:43.380Z,49.48
2018-02-23T03:43:45.869Z,49.43
2018-02-23T03:44:48.364Z,49.35
2018-02-23T03:45:50.836Z,49.35
2018-02-23T03:46:53.330Z,49.28
2018-02-23T03:47:55.825Z,49.30
2018-02-23T03:48:58.308Z,49.35
2018-02-23T03:50:00.787Z,49.38
2018-02-23T03:51:03.269Z,49.39
2018-02-23T03:52:05.752Z,49.42
2018-02-23T03:53:08.249Z,49.47
2018-02-23T03:54:10.888Z,49.45
2018-02-23T03:55:13.380Z,49.49
2018-02-23T03:56:15.961Z,49.49
2018-02-23T03:57:18.445Z,49.51
2018-02-23T03:58:20.921Z,49.49
2018-02-23T03:59:23.402Z,49.39
2018-02-23T04:00:25.910Z,49.39
2018-02-23T04:01:28.375Z,49.44
2018-02-23T04:02:30.856Z,49.48
2018-02-23T04:03:33.339Z,49.49
2018-02-23T04:04:35.798Z,49.50
2018-02-23T04:05:38.297Z,49.50
2018-02-23T04:06:40.782Z,49.47
2018-02-23T04:07:43.286Z,49.47
2018-02-23T04:08:45.761Z,49.54
2018-02-23T04:09:48.230Z,49.57
2018-02-23T04:10:50.746Z,49.68
2018-02-23T04:11:53.223Z,49.65
2018-02-23T04:12:55.688Z,49.64
2018-02-23T04:13:58.274Z,49.51
2018-02-23T04:15:00.773Z,49.48
2018-02-23T04:16:03.256Z,49.43
2018-02-23T04:17:05.733Z,49.50
2018-02-23T04:18:08.239Z,49.57
2018-02-23T04:19:10.724Z,49.60
2018-02-23T04:20:13.217Z,49.82
2018-02-23T04:21:15.718Z,49.83
2018-02-23T04:22:18.186Z,49.67
2018-02-23T04:23:20.710Z,49.57
2018-02-23T04:24:23.163Z,49.60
2018-02-23T04:25:25.653Z,49.59
2018-02-23T04:26:28.161Z,49.67
2018-02-23T04:27:30.627Z,49.71
2018-02-23T04:28:33.142Z,49.89
2018-02-23T04:29:35.625Z,49.94
2018-02-23T04:30:38.129Z,49.94
2018-02-23T04:31:40.632Z,49.97
2018-02-23T04:32:43.107Z,50.14
2018-02-23T04:33:45.592Z,50.18
2018-02-23T04:34:48.073Z,50.33
2018-02-23T04:35:50.534Z,50.46
2018-02-23T04:36:53.066Z,50.74
2018-02-23T04:37:55.552Z,50.69
2018-02-23T04:38:58.051Z,50.81
2018-02-23T04:40:00.515Z,50.84
2018-02-23T04:41:02.998Z,50.83
2018-02-23T04:42:05.505Z,50.88
2018-02-23T04:43:07.971Z,50.93
2018-02-23T04:44:10.435Z,50.85
2018-02-23T04:45:12.906Z,50.59
2018-02-23T04:46:15.372Z,50.51
2018-02-23T04:47:17.873Z,50.50
2018-02-23T04:48:20.335Z,50.44
2018-02-23T04:49:22.830Z,50.47
2018-02-23T04:50:25.321Z,50.51
2018-02-23T04:51:27.788Z,50.46
2018-02-23T04:52:30.301Z,50.43
2018-02-23T04:53:32.781Z,50.42
2018-02-23T04:54:35.258Z,50.29
2018-02-23T04:55:37.747Z,50.29
2018-02-23T04:56:40.239Z,50.52
2018-02-23T04:57:42.757Z,50.65
2018-02-23T04:58:45.224Z,50.77
2018-02-23T04:59:47.721Z,50.78
2018-02-23T05:00:50.207Z,50.78
2018-02-23T05:01:52.676Z,50.88
2018-02-23T05:02:55.175Z,51.09
2018-02-23T05:03:57.643Z,51.02
2018-02-23T05:05:00.159Z,51.00
2018-02-23T05:06:02.645Z,51.00
2018-02-23T05:07:05.124Z,51.14
2018-02-23T05:08:07.618Z,51.17
2018-02-23T05:09:10.102Z,51.12
2018-02-23T05:10:12.597Z,51.10
2018-02-23T05:11:15.077Z,51.14
2018-02-23T05:12:17.551Z,51.10
2018-02-23T05:13:20.049Z,51.09
2018-02-23T05:14:22.537Z,51.10
2018-02-23T05:15:25.026Z,51.07
2018-02-23T05:16:27.521Z,51.03
2018-02-23T05:17:29.991Z,51.12
2018-02-23T05:18:32.498Z,51.17
2018-02-23T05:19:34.995Z,51.15
2018-02-23T05:20:37.465Z,51.03
2018-02-23T05:21:39.961Z,50.95
2018-02-23T05:22:42.465Z,50.89
2018-02-23T05:23:44.977Z,50.95
2018-02-23T05:24:47.473Z,51.02
2018-02-23T05:25:50.009Z,51.30
2018-02-23T05:26:52.505Z,51.34
2018-02-23T05:27:54.973Z,51.40
2018-02-23T05:28:57.464Z,51.40
2018-02-23T05:29:59.946Z,51.32
2018-02-23T05:31:02.449Z,51.37
2018-02-23T05:32:04.933Z,51.44
2018-02-23T05:33:07.421Z,51.55
2018-02-23T05:34:09.941Z,51.51
2018-02-23T05:35:12.430Z,51.33
2018-02-23T05:36:14.907Z,51.26
2018-02-23T05:37:17.442Z,51.42
2018-02-23T05:38:19.943Z,51.40
2018-02-23T05:39:22.455Z,51.42
2018-02-23T05:40:24.934Z,51.38
2018-02-23T05:41:27.425Z,51.33
2018-02-23T05:42:29.895Z,51.30
2018-02-23T05:43:32.363Z,51.16
2018-02-23T05:44:34.851Z,51.05
2018-02-23T05:45:37.330Z,51.03
2018-02-23T05:46:39.798Z,51.03
2018-02-23T05:47:42.278Z,51.04
2018-02-23T05:48:44.747Z,51.00
2018-02-23T05:49:47.232Z,50.96
2018-02-23T05:50:49.757Z,50.96
2018-02-23T05:51:52.240Z,50.94
2018-02-23T05:52:54.732Z,50.97
2018-02-23T05:53:57.230Z,51.11
2018-02-23T05:54:59.734Z,51.28
2018-02-23T05:56:02.225Z,51.36
2018-02-23T05:57:04.703Z,51.45
2018-02-23T05:58:07.202Z,51.54
2018-02-23T05:59:09.683Z,51.49
2018-02-23T06:00:12.196Z,51.50
2018-02-23T06:01:14.685Z,51.52
2018-02-23T06:02:17.175Z,51.53
2018-02-23T06:03:19.665Z,51.52
2018-02-23T06:04:22.161Z,51.54
2018-02-23T06:05:24.695Z,51.59
2018-02-23T06:06:27.168Z,51.66
2018-02-23T06:07:29.698Z,51.71
2018-02-23T06:08:32.205Z,51.71
2018-02-23T06:09:34.683Z,51.66
2018-02-23T06:10:37.168Z,51.64
2018-02-23T06:11:39.631Z,51.68
2018-02-23T06:12:42.186Z,51.69
2018-02-23T06:13:44.696Z,51.64
2018-02-23T06:14:47.167Z,51.59
2018-02-23T06:15:55.302Z,51.75
2018-02-23T06:16:57.799Z,51.71
2018-02-23T06:18:05.889Z,51.69
2018-02-23T06:19:08.368Z,51.67
2018-02-23T06:20:10.847Z,51.54
2018-02-23T06:21:13.356Z,51.46
2018-02-23T06:22:15.879Z,51.48
2018-02-23T06:23:18.342Z,51.50
2018-02-23T06:24:20.830Z,51.59
2018-02-23T06:25:23.321Z,51.83
2018-02-23T06:26:25.839Z,52.17
2018-02-23T06:27:28.333Z,52.32
2018-02-23T06:28:30.825Z,52.40
2018-02-23T06:29:33.330Z,52.42
2018-02-23T06:30:35.815Z,52.35
2018-02-23T06:31:38.324Z,52.41
2018-02-23T06:32:40.800Z,52.48
2018-02-23T06:33:43.294Z,52.53
2018-02-23T06:34:45.768Z,52.58
2018-02-23T06:35:48.346Z,52.63
2018-02-23T06:36:50.957Z,52.72
2018-02-23T06:37:53.438Z,52.60
2018-02-23T06:38:55.925Z,52.48
2018-02-23T06:39:58.417Z,52.49
2018-02-23T06:41:00.898Z,52.41
2018-02-23T06:42:03.415Z,52.42
2018-02-23T06:43:05.911Z,52.28
2018-02-23T06:44:08.405Z,52.09
2018-02-23T06:45:10.933Z,52.19
2018-02-23T06:46:13.421Z,52.18
2018-02-23T06:47:15.922Z,52.21
2018-02-23T06:48:18.411Z,52.27
2018-02-23T06:49:20.886Z,52.21
2018-02-23T06:50:23.366Z,52.19
2018-02-23T06:51:25.865Z,52.12
2018-02-23T06:52:28.378Z,52.22
2018-02-23T06:53:30.908Z,52.27
2018-02-23T06:54:33.391Z,52.38
2018-02-23T06:55:35.880Z,52.46
2018-02-23T06:56:38.382Z,52.54
2018-02-23T06:57:40.889Z,52.50
2018-02-23T06:58:43.368Z,52.59
2018-02-23T06:59:45.872Z,52.67
2018-02-23T07:00:48.373Z,52.47
2018-02-23T07:01:50.862Z,52.49
2018-02-23T07:02:53.399Z,52.52
2018-02-23T07:03:55.861Z,52.49
2018-02-23T07:04:58.336Z,52.40
2018-02-23T07:06:00.829Z,52.57
2018-02-23T07:07:03.322Z,52.79
2018-02-23T07:08:05.834Z,52.42
2018-02-23T07:09:08.329Z,51.35
2018-02-23T07:10:10.808Z,47.48
2018-02-23T07:11:13.416Z,48.01
2018-02-23T07:12:15.797Z,48.43
2018-02-23T07:13:18.307Z,48.09
2018-02-23T07:14:20.805Z,47.16
2018-02-23T07:15:23.309Z,46.17
2018-02-23T07:16:25.819Z,45.71
2018-02-23T07:17:28.292Z,44.81
2018-02-23T07:18:31.139Z,43.03
2018-02-23T07:19:33.631Z,42.10
2018-02-23T07:20:36.134Z,42.13
2018-02-23T07:21:38.647Z,41.15
2018-02-23T07:22:41.127Z,41.62
2018-02-23T07:23:43.637Z,41.91
2018-02-23T07:24:46.161Z,42.17
2018-02-23T07:25:48.669Z,42.18
2018-02-23T07:26:51.162Z,42.11
2018-02-23T07:27:53.670Z,41.96
2018-02-23T07:28:56.196Z,41.70
2018-02-23T07:29:58.691Z,41.52
2018-02-23T07:31:01.171Z,41.12
2018-02-23T07:32:03.668Z,40.59
2018-02-23T07:33:06.165Z,40.74
2018-02-23T07:34:08.664Z,40.72
2018-02-23T07:35:11.145Z,40.58
2018-02-23T07:36:13.637Z,40.10
2018-02-23T07:37:16.119Z,39.92
2018-02-23T07:38:18.730Z,40.05
2018-02-23T07:39:21.230Z,38.19
2018-02-23T07:40:23.726Z,37.20
2018-02-23T07:41:26.448Z,37.07
2018-02-23T07:42:28.982Z,37.52
2018-02-23T07:43:31.464Z,37.94
2018-02-23T07:44:34.014Z,38.38
2018-02-23T07:45:36.528Z,38.31
2018-02-23T07:46:39.004Z,38.20
2018-02-23T07:47:41.491Z,38.04
2018-02-23T07:48:43.981Z,37.85
2018-02-23T07:49:46.497Z,37.65
2018-02-23T07:50:48.972Z,37.48
2018-02-23T07:51:51.494Z,37.36
2018-02-23T07:52:53.972Z,37.36
2018-02-23T07:53:56.459Z,37.42
2018-02-23T07:54:58.948Z,37.47
2018-02-23T07:56:01.441Z,37.54
2018-02-23T07:57:03.930Z,37.53
2018-02-23T07:58:06.417Z,37.33
2018-02-23T07:59:08.922Z,37.42
2018-02-23T08:00:11.463Z,37.18
2018-02-23T08:01:13.961Z,36.67
2018-02-23T08:02:16.447Z,36.46
2018-02-23T08:03:18.942Z,36.32
2018-02-23T08:04:21.432Z,36.17
2018-02-23T08:05:24.066Z,36.38
2018-02-23T08:06:26.544Z,36.72
2018-02-23T08:07:29.018Z,36.90
2018-02-23T08:08:31.509Z,36.64
2018-02-23T08:09:34.010Z,36.52
2018-02-23T08:10:36.553Z,36.78
2018-02-23T08:11:39.032Z,36.89
2018-02-23T08:12:41.507Z,37.09
2018-02-23T08:13:43.992Z,36.83
2018-02-23T08:14:46.467Z,36.13
2018-02-23T08:15:48.967Z,36.23
2018-02-23T08:16:51.449Z,35.93
2018-02-23T08:17:53.931Z,36.04
2018-02-23T08:18:56.430Z,35.94
2018-02-23T08:19:58.912Z,35.57
2018-02-23T08:21:01.484Z,35.43
2018-02-23T08:22:03.977Z,33.18
2018-02-23T08:23:06.474Z,33.10
2018-02-23T08:24:08.951Z,33.02
2018-02-23T08:25:11.435Z,34.00
2018-02-23T08:26:13.936Z,33.42
2018-02-23T08:27:16.423Z,34.49
2018-02-23T08:28:18.900Z,34.24
2018-02-23T08:29:21.401Z,33.38
2018-02-23T08:30:23.893Z,33.08
2018-02-23T08:31:26.396Z,33.70
2018-02-23T08:32:28.870Z,33.10
2018-02-23T08:33:31.439Z,33.79
2018-02-23T08:34:33.924Z,33.69
2018-02-23T08:35:36.455Z,33.76
2018-02-23T08:36:38.972Z,33.58
2018-02-23T08:37:41.460Z,33.48
2018-02-23T08:38:43.950Z,33.09
2018-02-23T08:39:46.446Z,32.75
2018-02-23T08:40:48.955Z,33.11
2018-02-23T08:41:51.455Z,33.65
2018-02-23T08:42:53.943Z,33.61
2018-02-23T08:43:56.416Z,33.69
2018-02-23T08:44:58.882Z,33.91
2018-02-23T08:46:01.446Z,34.16
2018-02-23T08:47:03.948Z,34.28
2018-02-23T08:48:06.449Z,34.46
2018-02-23T08:49:08.950Z,34.66
2018-02-23T08:50:11.419Z,34.89
2018-02-23T08:51:13.899Z,35.00
2018-02-23T08:52:16.387Z,34.97
2018-02-23T08:53:18.854Z,34.87
2018-02-23T08:54:21.341Z,34.92
2018-02-23T08:55:23.826Z,35.04
2018-02-23T08:56:26.307Z,35.22
2018-02-23T08:57:28.795Z,35.13
2018-02-23T08:58:31.268Z,35.14
2018-02-23T08:59:33.760Z,34.71
2018-02-23T09:00:46.049Z,34.36
2018-02-23T09:01:48.519Z,33.77
2018-02-23T09:02:51.022Z,33.68
2018-02-23T09:03:53.499Z,33.69
2018-02-23T09:04:56.000Z,33.76
2018-02-23T09:05:58.477Z,33.51
2018-02-23T09:07:00.963Z,33.50
2018-02-23T09:08:03.546Z,33.58
2018-02-23T09:09:06.023Z,33.50
2018-02-23T09:10:08.505Z,33.53
2018-02-23T09:11:10.993Z,33.59
2018-02-23T09:12:13.480Z,33.65
2018-02-23T09:13:15.968Z,33.74
2018-02-23T09:14:18.453Z,33.60
2018-02-23T09:15:20.933Z,33.92
2018-02-23T09:16:23.423Z,33.74
2018-02-23T09:17:25.928Z,33.78
2018-02-23T09:18:28.464Z,33.89
2018-02-23T09:19:30.960Z,33.68
2018-02-23T09:20:33.485Z,33.96
2018-02-23T09:21:35.956Z,34.15
2018-02-23T09:22:38.449Z,34.22
2018-02-23T09:23:40.935Z,34.13
2018-02-23T09:24:43.408Z,34.07
2018-02-23T09:25:45.875Z,34.05
2018-02-23T09:26:48.352Z,34.34
2018-02-23T09:27:50.912Z,34.42
2018-02-23T09:28:53.422Z,34.21
2018-02-23T09:29:55.895Z,34.21
2018-02-23T09:30:58.377Z,34.13
2018-02-23T09:32:00.848Z,34.24
2018-02-23T09:33:03.489Z,34.23
2018-02-23T09:34:17.854Z,34.19
2018-02-23T09:35:20.331Z,34.08
2018-02-23T09:36:22.818Z,34.30
2018-02-23T09:37:25.296Z,34.08
2018-02-23T09:38:27.787Z,34.28
2018-02-23T09:39:30.264Z,34.56
2018-02-23T09:40:32.749Z,34.41
2018-02-23T09:41:35.245Z,34.65
2018-02-23T09:42:37.915Z,34.57
2018-02-23T09:43:40.595Z,34.53
2018-02-23T09:44:43.062Z,34.57
2018-02-23T09:45:45.527Z,34.47
2018-02-23T09:46:48.011Z,34.38
2018-02-23T09:47:50.489Z,34.30
2018-02-23T09:48:53.000Z,34.31
2018-02-23T09:49:55.493Z,34.31
2018-02-23T09:50:57.980Z,34.28
2018-02-23T09:52:00.553Z,34.34
2018-02-23T09:53:03.042Z,34.50
2018-02-23T09:54:05.536Z,34.67
2018-02-23T09:55:08.025Z,34.66
2018-02-23T09:56:10.495Z,34.76
2018-02-23T09:57:12.957Z,34.64
2018-02-23T09:58:15.445Z,34.66
2018-02-23T09:59:17.945Z,34.31
2018-02-23T10:00:20.434Z,34.55
2018-02-23T10:01:22.904Z,34.58
2018-02-23T10:02:25.385Z,34.66
2018-02-23T10:03:27.872Z,34.62
2018-02-23T10:04:30.373Z,34.50
2018-02-23T10:05:32.907Z,34.38
2018-02-23T10:06:35.380Z,34.38
2018-02-23T10:07:37.865Z,34.49
2018-02-23T10:08:40.340Z,34.48
2018-02-23T10:09:42.845Z,34.68
2018-02-23T10:10:45.344Z,34.73
2018-02-23T10:11:47.821Z,34.68
2018-02-23T10:12:50.292Z,34.79
2018-02-23T10:13:52.769Z,34.70
2018-02-23T10:14:55.255Z,34.66
2018-02-23T10:15:57.732Z,34.79
2018-02-23T10:17:00.203Z,34.70
2018-02-23T10:18:02.676Z,34.70
2018-02-23T10:19:05.228Z,34.62
2018-02-23T10:20:07.944Z,34.73
2018-02-23T10:21:10.424Z,34.64
2018-02-23T10:22:12.890Z,34.62
2018-02-23T10:23:15.372Z,34.62
2018-02-23T10:24:17.861Z,34.54
2018-02-23T10:25:20.355Z,34.64
2018-02-23T10:26:22.821Z,34.83
2018-02-23T10:27:25.329Z,34.81
2018-02-23T10:28:27.798Z,34.97
2018-02-23T10:29:30.285Z,34.99
2018-02-23T10:30:32.793Z,35.25
2018-02-23T10:31:35.278Z,35.24
2018-02-23T10:32:37.758Z,35.22
2018-02-23T10:33:40.233Z,34.93
2018-02-23T10:34:42.717Z,34.61
2018-02-23T10:35:45.199Z,34.44
2018-02-23T10:36:47.764Z,34.37
2018-02-23T10:37:50.227Z,34.46
2018-02-23T10:38:52.705Z,34.44
2018-02-23T10:39:55.194Z,34.32
2018-02-23T10:40:57.678Z,34.20
2018-02-23T10:42:00.196Z,34.29
2018-02-23T10:43:02.663Z,34.10
2018-02-23T10:44:05.155Z,34.38
2018-02-23T10:45:07.633Z,34.48
2018-02-23T10:46:10.127Z,34.41
2018-02-23T10:47:12.636Z,34.45
2018-02-23T10:48:15.118Z,34.36
2018-02-23T10:49:17.584Z,34.37
2018-02-23T10:50:20.047Z,34.31
2018-02-23T10:51:22.544Z,34.14
2018-02-23T10:52:25.033Z,34.21
2018-02-23T10:53:27.526Z,34.09
2018-02-23T10:54:29.998Z,34.09
2018-02-23T10:55:32.490Z,34.09
2018-02-23T10:56:34.991Z,33.99
2018-02-23T10:57:37.487Z,34.06
2018-02-23T10:58:39.961Z,34.07
2018-02-23T10:59:42.444Z,33.70
2018-02-23T11:00:44.915Z,33.91
2018-02-23T11:01:47.414Z,34.01
2018-02-23T11:02:49.897Z,33.88
2018-02-23T11:03:52.382Z,34.08
2018-02-23T11:04:54.859Z,34.04
2018-02-23T11:05:57.336Z,34.19
2018-02-23T11:06:59.877Z,33.98
2018-02-23T11:08:02.364Z,34.17
2018-02-23T11:09:04.862Z,34.22
2018-02-23T11:10:07.360Z,34.13
2018-02-23T11:11:09.856Z,34.13
2018-02-23T11:12:12.367Z,33.90
2018-02-23T11:13:14.868Z,34.04
2018-02-23T11:14:17.345Z,33.92
2018-02-23T11:15:19.803Z,34.03
2018-02-23T11:16:22.263Z,33.93
2018-02-23T11:17:24.747Z,33.98
2018-02-23T11:18:27.214Z,33.93
2018-02-23T11:19:29.731Z,34.07
2018-02-23T11:20:32.315Z,34.19
2018-02-23T11:21:34.797Z,34.04
2018-02-23T11:22:37.295Z,34.22
2018-02-23T11:23:39.782Z,34.23
2018-02-23T11:24:42.261Z,34.14
2018-02-23T11:25:44.741Z,34.04
2018-02-23T11:26:47.217Z,34.07
2018-02-23T11:27:49.701Z,33.97
2018-02-23T11:28:52.185Z,33.92
2018-02-23T11:29:54.655Z,33.80
2018-02-23T11:30:57.124Z,33.79
2018-02-23T11:31:59.617Z,33.94
2018-02-23T11:33:02.218Z,33.89
2018-02-23T11:34:04.688Z,33.96
2018-02-23T11:35:07.204Z,34.06
2018-02-23T11:36:09.679Z,34.09
2018-02-23T11:37:12.139Z,33.87
2018-02-23T11:38:14.641Z,34.08
2018-02-23T11:39:17.115Z,34.19
2018-02-23T11:40:19.597Z,34.14
2018-02-23T11:41:22.101Z,34.14
2018-02-23T11:42:24.585Z,34.10
2018-02-23T11:43:27.093Z,34.00
2018-02-23T11:44:29.584Z,33.96
2018-02-23T11:45:32.071Z,33.87
2018-02-23T11:46:34.549Z,33.86
2018-02-23T11:47:37.033Z,33.85
2018-02-23T11:48:39.601Z,33.79
2018-02-23T11:49:42.081Z,33.90
2018-02-23T11:50:44.569Z,33.93
2018-02-23T11:51:47.043Z,33.85
2018-02-23T11:52:49.525Z,34.10
2018-02-23T11:53:52.003Z,34.06
2018-02-23T11:54:54.464Z,34.09
2018-02-23T11:55:56.932Z,34.10
2018-02-23T11:56:59.419Z,34.12
2018-02-23T11:58:07.931Z,34.03
2018-02-23T11:59:10.436Z,33.94
2018-02-23T12:00:12.953Z,33.90
2018-02-23T12:01:15.429Z,33.83
2018-02-23T12:02:17.908Z,33.80
2018-02-23T12:03:20.394Z,33.79
2018-02-23T12:04:22.862Z,33.74
2018-02-23T12:05:25.341Z,33.73
2018-02-23T12:06:27.807Z,33.72
2018-02-23T12:07:30.271Z,33.81
2018-02-23T12:08:32.739Z,33.88
2018-02-23T12:09:35.202Z,33.93
2018-02-23T12:10:37.683Z,33.95
2018-02-23T12:11:40.178Z,33.92
2018-02-23T12:12:42.647Z,34.02
2018-02-23T12:13:45.115Z,33.99
2018-02-23T12:14:47.584Z,33.91
2018-02-23T12:15:50.067Z,33.89
2018-02-23T12:16:52.536Z,33.83
2018-02-23T12:17:55.002Z,33.84
2018-02-23T12:18:57.467Z,33.80
2018-02-23T12:19:59.971Z,33.77
2018-02-23T12:21:02.575Z,33.68
2018-02-23T12:22:05.071Z,33.75
2018-02-23T12:23:07.881Z,33.82
2018-02-23T12:24:10.402Z,33.83
2018-02-23T12:25:12.887Z,33.76
2018-02-23T12:26:15.368Z,33.88
2018-02-23T12:27:17.835Z,33.91
2018-02-23T12:28:20.335Z,33.88
2018-02-23T12:29:22.802Z,33.94
2018-02-23T12:30:25.354Z,33.94
2018-02-23T12:31:27.845Z,33.70
2018-02-23T12:32:30.316Z,33.86
2018-02-23T12:33:32.786Z,33.79
2018-02-23T12:34:35.251Z,33.71
2018-02-23T12:35:37.743Z,33.67
2018-02-23T12:36:40.224Z,33.67
2018-02-23T12:37:42.706Z,33.59
2018-02-23T12:38:45.193Z,33.70
2018-02-23T12:39:47.677Z,33.69
2018-02-23T12:40:50.169Z,33.77
2018-02-23T12:41:52.639Z,33.80
2018-02-23T12:42:55.117Z,33.84
2018-02-23T12:43:57.598Z,33.89
2018-02-23T12:45:00.072Z,33.77
2018-02-23T12:46:02.575Z,33.68
2018-02-23T12:47:05.066Z,33.58
2018-02-23T12:48:07.541Z,33.72
2018-02-23T12:49:10.009Z,33.63
2018-02-23T12:50:12.516Z,33.65
2018-02-23T12:51:15.034Z,33.53
2018-02-23T12:52:17.495Z,33.44
2018-02-23T12:53:19.977Z,33.41
2018-02-23T12:54:22.453Z,33.45
2018-02-23T12:55:24.923Z,33.49
2018-02-23T12:56:27.430Z,33.57
2018-02-23T12:57:29.900Z,33.57
2018-02-23T12:58:32.479Z,33.60
2018-02-23T12:59:34.943Z,33.59
2018-02-23T13:00:37.425Z,33.63
2018-02-23T13:01:39.906Z,33.68
2018-02-23T13:02:42.376Z,33.23
2018-02-23T13:03:44.865Z,32.80
2018-02-23T13:04:47.327Z,32.80
2018-02-23T13:05:49.805Z,32.73
2018-02-23T13:06:52.306Z,32.79
2018-02-23T13:07:54.793Z,32.74
2018-02-23T13:08:57.270Z,32.61
2018-02-23T13:09:59.735Z,32.55
2018-02-23T13:11:02.222Z,32.65
2018-02-23T13:12:04.706Z,32.62
2018-02-23T13:13:07.194Z,32.64
2018-02-23T13:14:09.663Z,32.72
2018-02-23T13:15:17.889Z,32.80
2018-02-23T13:16:26.028Z,32.92
2018-02-23T13:17:28.559Z,32.73
2018-02-23T13:18:31.609Z,32.69
2018-02-23T13:19:34.084Z,32.56
2018-02-23T13:20:36.573Z,32.49
2018-02-23T13:21:39.059Z,32.34
2018-02-23T13:22:41.555Z,32.19
2018-02-23T13:23:44.092Z,32.12
2018-02-23T13:24:46.579Z,31.75
2018-02-23T13:25:49.061Z,31.71
2018-02-23T13:26:51.529Z,31.74